Time;durP1;ratioP1;P1;durP2;ratioP2;P2;SDS_P1;SDS_P2;PMS_P1;PMS_P2;Temp;Humidity;BMP_temperature;BMP_pressure;BME280_temperature;BME280_humidity;BME280_pressure;Samples;Min_cycle;Max_cycle;Signal;HPM_P1;HPM_P2
2021/01/30 00:00:40;;;;;;;1.43;0.40;;;6.40;99.90;;;;;;5026446;28;20155;-90
2021/01/30 00:03:07;;;;;;;1.07;0.27;;;6.30;99.90;;;;;;5023000;28;20118;-91
2021/01/30 00:05:33;;;;;;;2.10;0.60;;;6.30;99.90;;;;;;5022243;28;20100;-90
2021/01/30 00:07:59;;;;;;;2.80;0.50;;;6.30;99.90;;;;;;5031014;28;20469;-90
2021/01/30 00:10:25;;;;;;;2.47;0.50;;;6.20;99.90;;;;;;5018728;28;20065;-90
2021/01/30 00:12:51;;;;;;;2.23;0.40;;;6.30;99.90;;;;;;5026882;28;20164;-90
2021/01/30 00:15:22;;;;;;;2.23;0.47;;;6.20;99.90;;;;;;5039561;28;20100;-90
2021/01/30 00:17:49;;;;;;;2.27;0.40;;;6.20;99.90;;;;;;5020563;28;20060;-90
2021/01/30 00:20:24;;;;;;;4.27;0.30;;;6.20;99.90;;;;;;5022816;28;20652;-89
2021/01/30 00:22:54;;;;;;;3.83;0.50;;;6.10;99.90;;;;;;5019323;28;20037;-90
2021/01/30 00:25:31;;;;;;;2.97;0.80;;;6.10;99.90;;;;;;5023257;28;20513;-90
2021/01/30 00:27:57;;;;;;;4.67;0.60;;;6.10;99.90;;;;;;5013875;28;20021;-90
2021/01/30 00:30:26;;;;;;;2.03;0.33;;;6.10;99.90;;;;;;5031196;28;20052;-90
2021/01/30 00:32:53;;;;;;;1.33;0.40;;;6.10;99.90;;;;;;5038334;28;20119;-90
2021/01/30 00:35:25;;;;;;;2.37;0.37;;;6.10;99.90;;;;;;5038178;28;20032;-90
2021/01/30 00:37:50;;;;;;;2.80;0.38;;;6.10;99.90;;;;;;5038139;28;20478;-90
2021/01/30 00:40:22;;;;;;;0.97;0.30;;;6.00;99.90;;;;;;5037882;28;20044;-90
2021/01/30 00:42:48;;;;;;;2.22;0.20;;;5.90;99.90;;;;;;5018417;28;20033;-89
2021/01/30 00:45:17;;;;;;;5.33;0.50;;;5.90;99.90;;;;;;5018352;28;20040;-90
2021/01/30 00:47:42;;;;;;;2.33;0.40;;;5.90;99.90;;;;;;5037407;28;20033;-89
2021/01/30 00:50:09;;;;;;;2.50;0.40;;;5.90;99.90;;;;;;5018051;28;20025;-90
2021/01/30 00:52:36;;;;;;;3.20;0.87;;;5.90;99.90;;;;;;5017785;28;20045;-89
2021/01/30 00:55:02;;;;;;;3.37;0.40;;;5.80;99.90;;;;;;5017951;28;20112;-90
2021/01/30 00:57:28;;;;;;;0.57;0.20;;;5.80;99.90;;;;;;5025313;28;20025;-90
2021/01/30 00:59:53;;;;;;;0.83;0.40;;;5.70;99.90;;;;;;5037480;28;20025;-90
2021/01/30 01:02:19;;;;;;;0.93;0.30;;;5.90;99.90;;;;;;5017682;28;20034;-89
2021/01/30 01:04:45;;;;;;;1.47;0.40;;;5.80;99.90;;;;;;5017670;28;20025;-90
2021/01/30 01:07:13;;;;;;;2.63;0.70;;;5.80;99.90;;;;;;5018330;28;20032;-90
2021/01/30 01:09:40;;;;;;;2.23;0.30;;;5.80;99.90;;;;;;5017260;28;20398;-89
2021/01/30 01:12:06;;;;;;;2.77;0.40;;;5.80;99.90;;;;;;5024849;28;20021;-89
2021/01/30 01:14:31;;;;;;;3.20;0.57;;;5.80;99.90;;;;;;5018082;28;20551;-90
2021/01/30 01:16:57;;;;;;;1.53;0.40;;;5.70;99.90;;;;;;5017227;28;20032;-90
2021/01/30 01:19:22;;;;;;;2.20;0.40;;;5.80;99.90;;;;;;5022442;28;20029;-89
2021/01/30 01:21:50;;;;;;;1.77;0.30;;;5.80;99.90;;;;;;5037011;28;20021;-90
2021/01/30 01:24:17;;;;;;;2.97;0.47;;;5.70;99.90;;;;;;5019966;28;20468;-90
2021/01/30 01:26:55;;;;;;;2.63;0.40;;;5.70;99.90;;;;;;5017704;28;20021;-89
2021/01/30 01:29:22;;;;;;;3.00;0.33;;;5.80;99.90;;;;;;5017508;28;20031;-89
2021/01/30 01:31:55;;;;;;;2.43;0.23;;;5.70;99.90;;;;;;5016960;28;20027;-90
2021/01/30 01:34:28;;;;;;;2.27;0.40;;;5.80;99.90;;;;;;5047208;28;20089;-90
2021/01/30 01:37:02;;;;;;;3.13;0.40;;;5.70;99.90;;;;;;5044017;28;20017;-90
2021/01/30 01:39:52;;;;;;;1.87;0.20;;;5.80;99.90;;;;;;5050897;28;20478;-90
2021/01/30 01:42:21;;;;;;;2.23;0.33;;;5.80;99.90;;;;;;5037105;28;20018;-90
2021/01/30 01:44:48;;;;;;;2.17;0.30;;;5.90;99.90;;;;;;5061721;28;20025;-90
2021/01/30 01:47:37;;;;;;;2.73;0.30;;;5.90;99.90;;;;;;5065823;28;20021;-90
2021/01/30 01:50:43;;;;;;;3.00;0.20;;;5.90;99.90;;;;;;5041208;28;20029;-90
2021/01/30 01:53:27;;;;;;;2.73;0.20;;;5.90;99.90;;;;;;5031795;28;20117;-90
2021/01/30 01:56:03;;;;;;;3.63;0.40;;;5.90;99.90;;;;;;5059271;28;20021;-89
2021/01/30 01:58:32;;;;;;;3.70;0.43;;;5.90;99.90;;;;;;5035293;28;20021;-91
2021/01/30 02:00:58;;;;;;;0.83;0.27;;;5.80;99.90;;;;;;5033237;28;20029;-90
2021/01/30 02:03:26;;;;;;;0.93;0.40;;;5.80;99.90;;;;;;5034256;28;20496;-89
2021/01/30 02:05:51;;;;;;;0.77;0.20;;;5.90;99.90;;;;;;5044943;28;20022;-90
2021/01/30 02:08:23;;;;;;;1.37;0.20;;;5.80;99.90;;;;;;5043974;28;20032;-91
2021/01/30 02:10:50;;;;;;;0.87;0.20;;;5.80;99.90;;;;;;5037045;28;20028;-89
2021/01/30 02:13:21;;;;;;;2.40;0.30;;;5.80;99.90;;;;;;5022992;28;20040;-90
2021/01/30 02:15:49;;;;;;;1.80;0.30;;;5.70;99.90;;;;;;5029798;28;20109;-89
2021/01/30 02:18:50;;;;;;;1.07;0.20;;;5.70;99.90;;;;;;5037874;28;20027;-90
2021/01/30 02:21:43;;;;;;;1.50;0.30;;;5.70;99.90;;;;;;4964994;28;20479;-89
2021/01/30 02:24:15;;;;;;;0.93;0.20;;;5.60;99.90;;;;;;5008175;28;20033;-90
2021/01/30 02:27:06;;;;;;;2.20;0.30;;;5.60;99.90;;;;;;5035931;28;20028;-90
2021/01/30 02:30:08;;;;;;;1.90;0.20;;;5.60;99.90;;;;;;5040008;28;20033;-90
2021/01/30 02:32:56;;;;;;;1.40;0.20;;;5.60;99.90;;;;;;5030852;28;20474;-90
2021/01/30 02:35:49;;;;;;;0.57;0.13;;;5.60;99.90;;;;;;5016110;28;20032;-90
2021/01/30 02:38:21;;;;;;;0.73;0.13;;;5.50;99.90;;;;;;5016313;28;20453;-90
2021/01/30 02:41:10;;;;;;;0.85;0.15;;;5.50;99.90;;;;;;5016671;28;20092;-90
2021/01/30 02:43:42;;;;;;;2.77;0.20;;;5.50;99.90;;;;;;5025387;28;20032;-89
2021/01/30 02:46:14;;;;;;;1.58;0.20;;;5.60;99.90;;;;;;5024137;28;20478;-91
2021/01/30 02:48:44;;;;;;;;;;;5.50;99.90;;;;;;5022554;28;20038;-89
2021/01/30 02:51:18;;;;;;;2.03;0.17;;;5.50;99.90;;;;;;5015102;28;19948;-90
2021/01/30 02:53:49;;;;;;;1.83;0.20;;;5.40;99.90;;;;;;5033823;28;20027;-89
2021/01/30 02:56:15;;;;;;;0.87;0.20;;;5.30;99.90;;;;;;5025011;28;20022;-90
2021/01/30 02:59:06;;;;;;;0.63;0.40;;;5.30;99.90;;;;;;5030158;28;20099;-90
2021/01/30 03:01:39;;;;;;;0.43;0.13;;;5.40;99.90;;;;;;5024698;28;20025;-89
2021/01/30 03:04:12;;;;;;;1.13;0.17;;;5.40;99.90;;;;;;5015250;28;20025;-90
2021/01/30 03:07:20;;;;;;;1.40;0.20;;;5.30;99.90;;;;;;5015178;28;20037;-89
2021/01/30 03:09:58;;;;;;;2.20;0.30;;;5.30;99.90;;;;;;4995510;28;20024;-90
2021/01/30 03:12:40;;;;;;;2.23;0.20;;;5.40;99.90;;;;;;5013050;28;20017;-89
2021/01/30 03:15:34;;;;;;;1.25;0.20;;;5.30;99.90;;;;;;5031187;28;20017;-89
2021/01/30 03:18:03;;;;;;;1.90;0.30;;;5.30;99.90;;;;;;5003145;28;20040;-89
2021/01/30 03:20:31;;;;;;;0.50;0.10;;;5.40;99.90;;;;;;5015014;28;20502;-89
2021/01/30 03:22:59;;;;;;;2.53;0.30;;;5.30;99.90;;;;;;5015002;28;20025;-90
2021/01/30 03:25:27;;;;;;;1.93;0.40;;;5.30;99.90;;;;;;5014837;28;20033;-89
2021/01/30 03:27:56;;;;;;;1.63;0.20;;;5.30;99.90;;;;;;5018526;28;20108;-90
2021/01/30 03:30:25;;;;;;;1.23;0.30;;;5.30;99.90;;;;;;5014665;28;20030;-90
2021/01/30 03:32:51;;;;;;;1.50;0.33;;;5.30;99.90;;;;;;5021752;28;20044;-90
2021/01/30 03:35:18;;;;;;;1.33;0.40;;;5.30;99.90;;;;;;5030949;28;20104;-90
2021/01/30 03:37:43;;;;;;;1.60;0.20;;;5.30;99.90;;;;;;5009787;28;20514;-90
2021/01/30 03:40:11;;;;;;;1.17;0.20;;;5.20;99.90;;;;;;5019486;28;20064;-90
2021/01/30 03:42:38;;;;;;;1.47;0.40;;;5.30;99.90;;;;;;5032500;28;20060;-90
2021/01/30 03:45:11;;;;;;;1.60;0.30;;;5.20;99.90;;;;;;5020165;28;20095;-90
2021/01/30 03:47:37;;;;;;;2.30;0.60;;;5.30;99.90;;;;;;5014983;28;20371;-90
2021/01/30 03:50:05;;;;;;;2.20;0.30;;;5.30;99.90;;;;;;5014958;28;20040;-90
2021/01/30 03:52:31;;;;;;;1.47;0.30;;;5.30;99.90;;;;;;5014490;28;20501;-90
2021/01/30 03:54:56;;;;;;;2.00;0.20;;;5.30;99.90;;;;;;5014452;28;20056;-90
2021/01/30 03:57:31;;;;;;;1.37;0.30;;;5.30;99.90;;;;;;5032838;28;20017;-90
2021/01/30 03:59:57;;;;;;;2.47;0.30;;;5.30;99.90;;;;;;5015957;28;20350;-90
2021/01/30 04:02:23;;;;;;;0.93;0.20;;;5.20;99.90;;;;;;5018320;28;20030;-90
2021/01/30 04:04:48;;;;;;;1.93;0.20;;;5.20;99.90;;;;;;5032421;28;20040;-90
2021/01/30 04:07:17;;;;;;;2.27;0.20;;;5.20;99.90;;;;;;5041801;28;20076;-90
2021/01/30 04:09:42;;;;;;;2.33;0.30;;;5.30;99.90;;;;;;5018384;28;20100;-89
2021/01/30 04:12:08;;;;;;;1.93;0.40;;;5.30;99.90;;;;;;5019197;28;20021;-90
2021/01/30 04:14:34;;;;;;;1.87;0.30;;;5.20;99.90;;;;;;5020345;28;20032;-90
2021/01/30 04:17:02;;;;;;;1.87;0.30;;;5.20;99.90;;;;;;5018216;28;20161;-89
2021/01/30 04:19:28;;;;;;;3.83;0.30;;;5.20;99.90;;;;;;5020872;28;20028;-90
2021/01/30 04:21:53;;;;;;;1.30;0.30;;;5.20;99.90;;;;;;5017606;28;20482;-89
2021/01/30 04:24:19;;;;;;;4.63;0.67;;;5.20;99.90;;;;;;5017545;28;20390;-89
2021/01/30 04:26:49;;;;;;;1.70;0.40;;;5.20;99.90;;;;;;5017551;28;20075;-89
2021/01/30 04:29:16;;;;;;;3.27;0.30;;;5.20;99.90;;;;;;5017470;28;20013;-90
2021/01/30 04:31:41;;;;;;;1.97;0.20;;;5.30;99.90;;;;;;5017684;28;20029;-90
2021/01/30 04:34:08;;;;;;;1.57;0.30;;;5.30;99.90;;;;;;5018067;28;20486;-90
2021/01/30 04:36:33;;;;;;;1.43;0.20;;;5.30;99.90;;;;;;5017462;28;20080;-89
2021/01/30 04:38:59;;;;;;;2.33;0.33;;;5.40;99.90;;;;;;5019210;28;20030;-89
2021/01/30 04:41:52;;;;;;;3.33;0.30;;;5.30;99.90;;;;;;5023283;28;20032;-90
2021/01/30 04:44:36;;;;;;;3.60;0.40;;;5.30;99.90;;;;;;5019141;28;20025;-89
2021/01/30 04:47:30;;;;;;;4.00;0.40;;;5.30;99.90;;;;;;5018255;28;20025;-89
2021/01/30 04:50:16;;;;;;;3.43;0.30;;;5.40;99.90;;;;;;5036559;28;20036;-89
2021/01/30 04:52:49;;;;;;;1.93;0.30;;;5.40;99.90;;;;;;5017221;28;20100;-89
2021/01/30 04:55:27;;;;;;;3.43;0.37;;;5.40;99.90;;;;;;5024276;28;20044;-89
2021/01/30 04:58:07;;;;;;;1.73;0.30;;;5.40;99.90;;;;;;5026521;28;20022;-90
2021/01/30 05:00:57;;;;;;;2.10;0.53;;;5.40;99.90;;;;;;5015891;28;20486;-89
2021/01/30 05:03:35;;;;;;;2.87;0.30;;;5.40;99.90;;;;;;5019362;28;20087;-90
2021/01/30 05:06:16;;;;;;;3.70;0.33;;;5.40;99.90;;;;;;5018236;28;20411;-89
2021/01/30 05:08:52;;;;;;;3.73;0.40;;;5.30;99.90;;;;;;5019758;28;20419;-90
2021/01/30 05:11:21;;;;;;;4.43;0.60;;;5.30;99.90;;;;;;5016849;28;20029;-90
2021/01/30 05:13:57;;;;;;;2.20;0.40;;;5.40;99.90;;;;;;5033518;28;20094;-90
2021/01/30 05:16:36;;;;;;;3.67;0.40;;;5.30;99.90;;;;;;5008705;28;20025;-90
2021/01/30 05:19:11;;;;;;;4.27;0.60;;;5.30;99.90;;;;;;5016879;28;20029;-89
2021/01/30 05:21:50;;;;;;;3.90;0.53;;;5.30;99.90;;;;;;5029165;28;20104;-89
2021/01/30 05:24:16;;;;;;;2.73;0.67;;;5.30;99.90;;;;;;5022402;28;20367;-90
2021/01/30 05:27:18;;;;;;;2.93;0.73;;;5.30;99.90;;;;;;5016621;28;20175;-90
2021/01/30 05:30:03;;;;;;;5.70;0.40;;;5.30;99.90;;;;;;5016787;28;20026;-89
2021/01/30 05:33:04;;;;;;;4.20;0.40;;;5.20;99.90;;;;;;5014842;28;20272;-89
2021/01/30 05:35:44;;;;;;;5.97;0.50;;;5.20;99.90;;;;;;5009038;28;20180;-88
2021/01/30 05:38:50;;;;;;;3.60;0.50;;;5.30;99.90;;;;;;5025923;28;20076;-90
2021/01/30 05:41:36;;;;;;;2.87;0.40;;;5.30;99.90;;;;;;5004979;28;20041;-90
2021/01/30 05:44:10;;;;;;;4.17;0.70;;;5.20;99.90;;;;;;5010514;28;20049;-89
2021/01/30 05:46:37;;;;;;;4.50;0.40;;;5.20;99.90;;;;;;5016519;28;20053;-89
2021/01/30 05:49:11;;;;;;;8.07;0.87;;;5.10;99.90;;;;;;5016218;28;20028;-90
2021/01/30 05:51:40;;;;;;;3.67;0.43;;;5.10;99.90;;;;;;5019696;28;20025;-89
2021/01/30 05:54:06;;;;;;;4.97;0.73;;;5.10;99.90;;;;;;5016397;28;20029;-89
2021/01/30 05:56:38;;;;;;;6.03;0.80;;;5.10;99.90;;;;;;5015545;28;20031;-89
2021/01/30 05:59:08;;;;;;;6.03;0.60;;;5.10;99.90;;;;;;5016018;28;20056;-90
2021/01/30 06:01:34;;;;;;;5.20;0.60;;;5.10;99.90;;;;;;5021534;28;20454;-90
2021/01/30 06:04:05;;;;;;;4.63;0.53;;;5.20;99.90;;;;;;5016348;28;20060;-90
2021/01/30 06:06:51;;;;;;;6.68;0.65;;;5.10;99.90;;;;;;5037032;28;20080;-89
2021/01/30 06:09:39;;;;;;;5.67;0.97;;;5.10;99.90;;;;;;5016499;28;20565;-89
2021/01/30 06:12:32;;;;;;;5.27;0.80;;;5.10;99.90;;;;;;5020262;28;20025;-89
2021/01/30 06:15:21;;;;;;;6.30;0.90;;;5.10;99.90;;;;;;5009973;28;20017;-90
2021/01/30 06:17:48;;;;;;;7.57;0.90;;;5.10;99.90;;;;;;5005036;28;20021;-90
2021/01/30 06:20:20;;;;;;;9.03;1.00;;;5.10;99.90;;;;;;5016149;28;20116;-89
2021/01/30 06:23:06;;;;;;;11.07;0.77;;;5.10;99.90;;;;;;5018478;28;20033;-90
2021/01/30 06:25:46;;;;;;;6.27;0.77;;;5.00;99.90;;;;;;5012259;28;20264;-90
2021/01/30 06:28:29;;;;;;;7.40;0.83;;;5.00;99.90;;;;;;5017810;28;20537;-90
2021/01/30 06:31:07;;;;;;;7.80;0.63;;;5.00;99.90;;;;;;5017089;28;20551;-90
2021/01/30 06:33:44;;;;;;;8.20;1.13;;;5.00;99.90;;;;;;5012315;28;20030;-89
2021/01/30 06:36:20;;;;;;;8.53;1.07;;;5.00;99.90;;;;;;5003258;28;20052;-90
2021/01/30 06:38:59;;;;;;;11.17;1.20;;;5.10;99.90;;;;;;5014649;28;20170;-89
2021/01/30 06:41:29;;;;;;;10.70;1.73;;;5.10;99.90;;;;;;4995185;28;20545;-90
2021/01/30 06:44:21;;;;;;;9.33;1.57;;;5.10;99.90;;;;;;5009547;28;20075;-90
2021/01/30 06:47:13;;;;;;;12.27;1.50;;;5.10;99.90;;;;;;5014595;28;20417;-90
2021/01/30 06:49:44;;;;;;;;;;;5.10;99.90;;;;;;5014761;28;20108;-90
2021/01/30 06:52:21;;;;;;;9.13;1.20;;;5.10;99.90;;;;;;5023598;28;19952;-90
2021/01/30 06:55:13;;;;;;;8.57;1.10;;;5.10;99.90;;;;;;5014568;28;20124;-89
2021/01/30 06:57:42;;;;;;;8.47;1.43;;;5.20;99.90;;;;;;5014312;28;20029;-90
2021/01/30 07:00:23;;;;;;;11.83;1.40;;;5.10;99.90;;;;;;5014185;28;20079;-89
2021/01/30 07:02:51;;;;;;;9.50;1.00;;;5.20;99.90;;;;;;5014238;28;20025;-90
2021/01/30 07:05:44;;;;;;;8.03;1.23;;;5.10;99.90;;;;;;5014275;28;20799;-90
2021/01/30 07:08:36;;;;;;;8.40;1.20;;;5.20;99.90;;;;;;5014286;28;20072;-90
2021/01/30 07:11:07;;;;;;;6.80;1.02;;;5.20;99.90;;;;;;5020227;28;20063;-90
2021/01/30 07:13:56;;;;;;;15.68;1.95;;;5.20;99.90;;;;;;5016050;28;20029;-90
2021/01/30 07:16:58;;;;;;;13.20;1.63;;;5.20;99.90;;;;;;5020124;28;20021;-90
2021/01/30 07:19:55;;;;;;;8.35;1.20;;;5.20;99.90;;;;;;5014165;28;20026;-90
2021/01/30 07:22:26;;;;;;;11.77;1.17;;;5.30;99.90;;;;;;5014425;28;20034;-90
2021/01/30 07:25:04;;;;;;;6.47;0.93;;;5.30;99.90;;;;;;5014150;28;20026;-90
2021/01/30 07:27:49;;;;;;;9.13;1.20;;;5.30;99.90;;;;;;5031068;28;20052;-90
2021/01/30 07:30:19;;;;;;;9.30;1.10;;;5.40;99.90;;;;;;5014152;28;20026;-90
2021/01/30 07:33:10;;;;;;;6.10;1.00;;;5.40;99.90;;;;;;5013059;28;20028;-90
2021/01/30 07:35:44;;;;;;;14.17;1.63;;;5.40;99.90;;;;;;5018304;28;20731;-90
2021/01/30 07:38:33;;;;;;;10.37;1.20;;;5.40;99.90;;;;;;5018200;28;20025;-90
2021/01/30 07:41:02;;;;;;;14.03;1.50;;;5.50;99.90;;;;;;5017966;28;20084;-91
2021/01/30 07:43:36;;;;;;;6.47;1.20;;;5.60;99.90;;;;;;5018101;28;20433;-90
2021/01/30 07:46:04;;;;;;;11.73;1.60;;;5.50;99.90;;;;;;5017864;28;20052;-90
2021/01/30 07:48:54;;;;;;;10.27;1.10;;;5.60;99.90;;;;;;5017967;28;20052;-90
2021/01/30 07:51:38;;;;;;;9.83;1.40;;;5.60;99.90;;;;;;5020420;28;20104;-91
2021/01/30 07:54:04;;;;;;;12.30;1.40;;;5.60;99.90;;;;;;5007487;28;20022;-91
2021/01/30 07:56:56;;;;;;;9.20;1.73;;;5.60;99.90;;;;;;5019593;28;20043;-90
2021/01/30 07:59:56;;;;;;;8.88;1.55;;;5.60;99.90;;;;;;5017323;28;20029;-90
2021/01/30 08:02:48;;;;;;;8.90;1.20;;;5.60;99.90;;;;;;5014371;28;20530;-91
2021/01/30 08:05:27;;;;;;;11.68;2.05;;;5.60;99.90;;;;;;5007982;28;20079;-90
2021/01/30 08:08:09;;;;;;;12.73;2.00;;;5.70;99.90;;;;;;5020719;28;20510;-90
2021/01/30 08:11:26;;;;;;;11.30;1.45;;;5.70;99.90;;;;;;5025503;28;20529;-90
2021/01/30 08:14:10;;;;;;;8.87;1.17;;;5.70;99.90;;;;;;4966115;28;20037;-90
2021/01/30 08:16:48;;;;;;;10.73;1.57;;;5.80;99.90;;;;;;4982783;28;20031;-90
2021/01/30 08:19:22;;;;;;;10.07;1.40;;;5.80;99.90;;;;;;5014622;28;20393;-90
2021/01/30 08:21:58;;;;;;;15.70;2.17;;;5.80;99.90;;;;;;5030323;28;20481;-91
2021/01/30 08:24:30;;;;;;;10.63;1.43;;;5.90;99.90;;;;;;5025298;28;20052;-90
2021/01/30 08:27:02;;;;;;;;;;;5.90;99.90;;;;;;5016685;28;20060;-90
2021/01/30 08:29:37;;;;;;;14.43;1.20;;;5.90;99.90;;;;;;5003360;28;19955;-90
2021/01/30 08:32:24;;;;;;;11.53;1.87;;;5.90;99.90;;;;;;5017043;28;20124;-90
2021/01/30 08:34:52;;;;;;;8.87;1.20;;;5.90;99.90;;;;;;5016869;28;20029;-90
2021/01/30 08:37:20;;;;;;;10.80;1.23;;;5.90;99.90;;;;;;5029789;28;20036;-89
2021/01/30 08:40:01;;;;;;;10.03;1.40;;;5.90;99.90;;;;;;5016085;28;20037;-91
2021/01/30 08:42:33;;;;;;;10.10;1.37;;;5.90;99.90;;;;;;5010488;28;20643;-91
2021/01/30 08:45:03;;;;;;;11.10;1.77;;;5.90;99.90;;;;;;5012552;28;20432;-91
2021/01/30 08:48:15;;;;;;;9.67;1.70;;;5.90;99.90;;;;;;5032093;28;20111;-91
2021/01/30 08:50:51;;;;;;;10.60;2.03;;;6.00;99.90;;;;;;5007398;28;20057;-91
2021/01/30 08:53:29;;;;;;;10.00;1.77;;;5.90;99.90;;;;;;5016363;28;20034;-91
2021/01/30 08:56:37;;;;;;;15.30;1.97;;;6.00;99.90;;;;;;5017867;28;20021;-91
2021/01/30 08:59:30;;;;;;;17.07;1.80;;;5.90;99.90;;;;;;5021839;28;20537;-91
2021/01/30 09:02:03;;;;;;;6.80;1.27;;;5.90;99.90;;;;;;5018729;28;20021;-91
2021/01/30 09:04:57;;;;;;;7.70;1.70;;;6.00;99.90;;;;;;5016087;28;20030;-92
2021/01/30 09:07:49;;;;;;;11.97;1.80;;;6.10;99.90;;;;;;4999718;28;20029;-92
2021/01/30 09:10:20;;;;;;;13.38;2.10;;;6.10;99.90;;;;;;5027822;28;20024;-91
2021/01/30 09:13:15;;;;;;;12.13;2.38;;;6.10;99.90;;;;;;5021492;28;20022;-92
2021/01/30 09:15:58;;;;;;;14.17;1.67;;;6.10;99.90;;;;;;5011471;28;20033;-92
2021/01/30 09:18:34;;;;;;;9.00;1.83;;;6.10;99.90;;;;;;5018838;28;20037;-92
2021/01/30 09:21:24;;;;;;;13.60;1.70;;;6.10;99.90;;;;;;5018366;28;20037;-92
2021/01/30 09:24:20;;;;;;;10.50;1.70;;;6.20;99.90;;;;;;5015222;28;20053;-92
2021/01/30 09:27:03;;;;;;;15.23;2.20;;;6.20;99.90;;;;;;5018409;28;20057;-92
2021/01/30 09:29:42;;;;;;;13.43;1.80;;;6.20;99.90;;;;;;5017047;28;20018;-91
2021/01/30 09:32:27;;;;;;;15.70;1.93;;;6.20;99.90;;;;;;5017289;28;20033;-92
2021/01/30 09:35:04;;;;;;;8.77;1.40;;;6.20;99.90;;;;;;5021477;28;20067;-92
2021/01/30 09:37:40;;;;;;;16.93;2.07;;;6.30;99.90;;;;;;5030662;28;20092;-92
2021/01/30 09:40:36;;;;;;;13.37;2.20;;;6.30;99.90;;;;;;5018060;28;20030;-92
2021/01/30 09:43:20;;;;;;;13.17;2.00;;;6.40;99.90;;;;;;4998375;28;20034;-92
2021/01/30 09:45:52;;;;;;;10.83;1.70;;;6.40;99.90;;;;;;5019952;28;20028;-92
2021/01/30 09:48:21;;;;;;;16.95;2.45;;;6.50;99.90;;;;;;5037043;28;20107;-92
2021/01/30 09:50:59;;;;;;;11.77;1.83;;;6.50;99.90;;;;;;5036622;28;20029;-92
2021/01/30 09:53:31;;;;;;;14.10;2.03;;;6.50;99.90;;;;;;5031771;28;20028;-92
2021/01/30 09:56:13;;;;;;;10.73;1.42;;;6.60;99.90;;;;;;5015328;28;20025;-92
2021/01/30 09:58:43;;;;;;;13.87;1.77;;;6.60;99.90;;;;;;5016441;28;20057;-92
2021/01/30 10:01:32;;;;;;;11.43;1.80;;;6.60;99.90;;;;;;5011575;28;20108;-92
2021/01/30 10:04:00;;;;;;;13.47;1.97;;;6.70;99.90;;;;;;5026125;28;20025;-92
2021/01/30 10:06:34;;;;;;;12.10;1.80;;;6.70;99.90;;;;;;5016297;28;20041;-92
2021/01/30 10:09:28;;;;;;;12.80;1.73;;;6.90;99.90;;;;;;5016548;28;20025;-91
2021/01/30 10:11:57;;;;;;;7.83;1.67;;;6.70;99.90;;;;;;5005215;28;20029;-93
2021/01/30 10:14:33;;;;;;;14.73;1.57;;;6.80;99.90;;;;;;5010092;28;20043;-92
2021/01/30 10:17:05;;;;;;;14.40;1.87;;;6.80;99.90;;;;;;5021903;28;20060;-92
2021/01/30 10:19:35;;;;;;;;;;;6.80;99.90;;;;;;5009368;28;20022;-92
2021/01/30 10:22:19;;;;;;;15.93;1.80;;;6.80;99.90;;;;;;5029068;28;19909;-90
2021/01/30 10:24:46;;;;;;;14.13;2.30;;;6.80;99.90;;;;;;5004440;28;20029;-91
2021/01/30 10:27:29;;;;;;;10.87;1.57;;;6.90;99.90;;;;;;5023332;28;20052;-92
2021/01/30 10:29:56;;;;;;;12.33;1.87;;;6.80;99.90;;;;;;5006037;28;20051;-92
2021/01/30 10:32:39;;;;;;;17.97;2.50;;;6.80;99.90;;;;;;5018113;28;20036;-92
2021/01/30 10:35:18;;;;;;;11.33;1.97;;;6.80;99.90;;;;;;5008658;28;20032;-90
2021/01/30 10:38:09;;;;;;;14.23;1.90;;;6.80;99.90;;;;;;5014761;28;20512;-93
2021/01/30 10:40:38;;;;;;;12.57;1.50;;;6.90;99.90;;;;;;5005326;28;20045;-93
2021/01/30 10:43:26;;;;;;;12.40;1.77;;;6.90;99.90;;;;;;5031689;28;20021;-92
2021/01/30 10:46:01;;;;;;;9.43;1.50;;;6.90;99.90;;;;;;5009675;28;20049;-93
2021/01/30 10:48:33;;;;;;;14.07;1.50;;;7.00;99.90;;;;;;5016242;28;20075;-92
2021/01/30 10:51:18;;;;;;;9.40;1.20;;;7.00;99.90;;;;;;5023798;28;20026;-93
2021/01/30 10:53:43;;;;;;;13.77;1.70;;;7.00;99.90;;;;;;5027991;28;20026;-91
2021/01/30 10:56:29;;;;;;;9.20;1.53;;;7.00;99.90;;;;;;5013239;28;20037;-91
2021/01/30 10:58:56;;;;;;;9.27;1.40;;;7.00;99.90;;;;;;5017289;28;20043;-90
2021/01/30 11:01:25;;;;;;;11.03;1.63;;;7.00;99.90;;;;;;5013093;28;20041;-89
2021/01/30 11:04:00;;;;;;;10.77;1.47;;;7.00;99.90;;;;;;5014066;28;20111;-89
2021/01/30 11:06:31;;;;;;;8.67;1.33;;;7.00;99.90;;;;;;5012956;28;20057;-90
2021/01/30 11:09:11;;;;;;;6.60;1.17;;;7.10;99.90;;;;;;5004502;28;20458;-89
2021/01/30 11:11:37;;;;;;;6.53;1.37;;;7.00;99.90;;;;;;5009960;28;20372;-90
2021/01/30 11:14:18;;;;;;;12.17;1.60;;;7.10;99.90;;;;;;5012018;28;20524;-90
2021/01/30 11:16:44;;;;;;;13.50;1.73;;;7.10;99.90;;;;;;5018702;28;20022;-90
2021/01/30 11:19:36;;;;;;;13.90;1.90;;;7.10;99.90;;;;;;5013005;28;20363;-90
2021/01/30 11:22:09;;;;;;;16.25;2.53;;;7.10;99.90;;;;;;5006604;28;20033;-90
2021/01/30 11:24:46;;;;;;;11.87;1.80;;;7.10;99.90;;;;;;5015175;28;20124;-90
2021/01/30 11:27:33;;;;;;;16.30;1.93;;;7.10;99.90;;;;;;5015241;28;20032;-91
2021/01/30 11:30:12;;;;;;;14.70;2.30;;;7.10;99.90;;;;;;5009170;28;20056;-91
2021/01/30 11:32:37;;;;;;;16.43;2.33;;;7.10;99.90;;;;;;5010383;28;20044;-90
2021/01/30 11:35:04;;;;;;;19.23;2.50;;;7.10;99.90;;;;;;5012921;28;20470;-90
2021/01/30 11:37:31;;;;;;;14.93;2.40;;;7.10;99.90;;;;;;5012849;28;20022;-91
2021/01/30 11:40:05;;;;;;;14.33;1.90;;;7.00;99.90;;;;;;5002892;28;20026;-90
2021/01/30 11:42:31;;;;;;;12.90;2.40;;;7.10;99.90;;;;;;5002247;28;20076;-90
2021/01/30 11:44:56;;;;;;;13.77;2.73;;;7.10;99.90;;;;;;5007096;28;20057;-91
2021/01/30 11:47:22;;;;;;;14.03;2.10;;;7.10;99.90;;;;;;5009956;28;20561;-90
2021/01/30 11:49:48;;;;;;;11.93;1.70;;;7.10;99.90;;;;;;5023609;28;20104;-90
2021/01/30 11:52:18;;;;;;;11.40;1.90;;;7.20;99.90;;;;;;5014032;28;20022;-90
2021/01/30 11:54:46;;;;;;;12.33;1.63;;;7.20;99.90;;;;;;5013458;28;20021;-90
2021/01/30 11:57:12;;;;;;;12.73;1.80;;;7.30;99.90;;;;;;5007478;28;20014;-90
2021/01/30 11:59:38;;;;;;;12.03;2.20;;;7.20;99.90;;;;;;5013195;28;20286;-91
2021/01/30 12:02:03;;;;;;;9.80;2.13;;;7.30;99.90;;;;;;5019481;28;20118;-90
2021/01/30 12:04:30;;;;;;;12.37;1.93;;;7.30;99.90;;;;;;5014294;28;20036;-89
2021/01/30 12:06:55;;;;;;;9.87;1.90;;;7.20;99.90;;;;;;5012408;28;20053;-90
2021/01/30 12:09:21;;;;;;;14.63;1.87;;;7.30;99.90;;;;;;5016049;28;20029;-90
2021/01/30 12:11:46;;;;;;;16.67;2.47;;;7.30;99.90;;;;;;5013745;28;20065;-90
2021/01/30 12:14:12;;;;;;;10.47;1.80;;;7.30;99.90;;;;;;5008434;28;20028;-89
2021/01/30 12:16:38;;;;;;;7.67;1.70;;;7.30;99.90;;;;;;5012885;28;21263;-90
2021/01/30 12:19:03;;;;;;;8.40;1.50;;;7.30;99.90;;;;;;5028359;28;20048;-90
2021/01/30 12:21:29;;;;;;;14.07;1.77;;;7.20;99.90;;;;;;5018097;28;20084;-90
2021/01/30 12:23:54;;;;;;;16.10;2.37;;;7.20;99.90;;;;;;5018597;28;20028;-89
2021/01/30 12:26:23;;;;;;;9.93;2.27;;;7.20;99.90;;;;;;5021235;28;20029;-90
2021/01/30 12:28:50;;;;;;;11.10;1.70;;;7.10;99.90;;;;;;5030061;28;20026;-90
2021/01/30 12:31:15;;;;;;;11.83;1.57;;;7.10;99.90;;;;;;5016807;28;20025;-90
2021/01/30 12:33:41;;;;;;;11.27;2.10;;;7.10;99.90;;;;;;5031016;28;20026;-90
2021/01/30 12:36:07;;;;;;;11.20;1.67;;;7.10;99.90;;;;;;5022965;28;20555;-90
2021/01/30 13:12:18;;;;;;;12.57;1.90;;;6.70;99.90;;;;;;5043020;28;20057;-91
2021/01/30 13:14:44;;;;;;;7.43;1.50;;;6.60;99.90;;;;;;5037374;28;20074;-93
2021/01/30 13:17:11;;;;;;;12.07;1.70;;;6.70;99.90;;;;;;5018590;28;20018;-92
2021/01/30 13:19:37;;;;;;;10.70;2.20;;;6.70;99.90;;;;;;5013910;28;20029;-89
2021/01/30 13:22:03;;;;;;;11.87;2.00;;;6.60;99.90;;;;;;5008817;28;20113;-92
2021/01/30 13:24:28;;;;;;;14.83;2.33;;;6.50;99.90;;;;;;5020032;28;20104;-91
2021/01/30 13:26:54;;;;;;;14.53;2.03;;;6.50;99.90;;;;;;5009008;28;20026;-92
2021/01/30 13:29:20;;;;;;;9.10;1.90;;;6.50;99.90;;;;;;5003036;28;20021;-92
2021/01/30 13:31:51;;;;;;;10.83;2.27;;;6.50;99.90;;;;;;5012515;28;20064;-92
2021/01/30 13:34:19;;;;;;;11.63;2.63;;;6.50;99.90;;;;;;5030077;28;20298;-90
2021/01/30 13:36:50;;;;;;;8.97;1.93;;;6.50;99.90;;;;;;5033475;28;20026;-89
2021/01/30 13:39:16;;;;;;;8.93;2.13;;;6.40;99.90;;;;;;5008252;28;20049;-92
2021/01/30 13:41:41;;;;;;;8.10;1.63;;;6.40;99.90;;;;;;5015503;28;20589;-92
2021/01/30 13:44:08;;;;;;;10.13;1.77;;;6.40;99.90;;;;;;5033772;28;20028;-91
2021/01/30 13:46:35;;;;;;;11.63;1.47;;;6.30;99.90;;;;;;5033231;28;20031;-92
2021/01/30 13:49:00;;;;;;;8.73;1.20;;;6.20;99.90;;;;;;5013630;28;20029;-91
2021/01/30 13:51:26;;;;;;;4.90;0.70;;;6.30;99.90;;;;;;5008387;28;20029;-91
2021/01/30 13:53:52;;;;;;;6.90;0.70;;;6.20;99.90;;;;;;5013979;28;20021;-91
2021/01/30 13:56:18;;;;;;;7.30;0.87;;;6.20;99.90;;;;;;5011810;28;20034;-93
2021/01/30 13:58:43;;;;;;;4.87;1.10;;;6.10;99.90;;;;;;4997885;28;20030;-89
2021/01/30 14:01:11;;;;;;;7.17;1.60;;;6.30;99.90;;;;;;5005688;28;20429;-94
2021/01/30 14:03:36;;;;;;;3.73;0.60;;;6.40;99.90;;;;;;5024818;28;20025;-94
2021/01/30 14:06:04;;;;;;;7.40;1.00;;;6.50;99.90;;;;;;5014143;28;20042;-92
2021/01/30 14:08:31;;;;;;;7.33;2.00;;;6.70;99.90;;;;;;5015062;28;20021;-95